createdAt,value
2018-04-22T03:01:00.334Z,16.20
2018-04-22T03:02:00.701Z,17.40
2018-04-22T03:03:00.177Z,17.30
2018-04-22T03:04:00.379Z,18.60
2018-04-22T03:05:00.485Z,18.30
2018-04-22T03:06:00.658Z,17.20
2018-04-22T03:07:00.793Z,17.90
2018-04-22T03:08:01.037Z,17.90
2018-04-22T03:09:01.171Z,18.50
2018-04-22T03:10:01.361Z,18.60
2018-04-22T03:11:01.526Z,19.30
2018-04-22T03:12:01.661Z,18.10
2018-04-22T03:13:01.829Z,17.70
2018-04-22T03:14:01.974Z,18.80
2018-04-22T03:15:02.125Z,17.60
2018-04-22T03:16:02.293Z,18.90
2018-04-22T03:17:02.434Z,18.40
2018-04-22T03:18:02.643Z,17.90
2018-04-22T03:19:02.814Z,19.30
2018-04-22T03:20:02.995Z,21.00
2018-04-22T03:21:03.151Z,19.80
2018-04-22T03:22:03.333Z,19.60
2018-04-22T03:23:03.461Z,18.90
2018-04-22T03:24:03.606Z,19.30
2018-04-22T03:25:03.738Z,18.40
2018-04-22T03:26:03.952Z,18.80
2018-04-22T03:27:04.170Z,18.80
2018-04-22T03:28:04.407Z,19.40
2018-04-22T03:29:04.532Z,19.50
2018-04-22T03:30:04.698Z,21.30
2018-04-22T03:31:04.821Z,20.40
2018-04-22T03:32:05.094Z,20.60
2018-04-22T03:33:05.214Z,19.70
2018-04-22T03:34:05.388Z,22.60
2018-04-22T03:35:05.522Z,23.20
2018-04-22T03:36:05.718Z,22.30
2018-04-22T03:37:05.843Z,23.20
2018-04-22T03:38:06.016Z,23.60
2018-04-22T03:39:06.244Z,21.50
2018-04-22T03:40:06.370Z,23.90
2018-04-22T03:41:06.449Z,22.90
2018-04-22T03:42:06.624Z,23.50
2018-04-22T03:43:06.831Z,22.80
2018-04-22T03:44:07.023Z,24.10
2018-04-22T03:45:07.100Z,23.70
2018-04-22T03:46:07.340Z,25.80
2018-04-22T03:47:07.492Z,24.30
2018-04-22T03:48:07.625Z,23.60
2018-04-22T03:49:07.762Z,24.20
2018-04-22T03:50:07.976Z,24.60
2018-04-22T03:51:08.081Z,25.90
2018-04-22T03:52:08.243Z,25.80
2018-04-22T03:53:08.429Z,25.60
2018-04-22T03:54:08.595Z,28.40
2018-04-22T03:55:08.772Z,27.40
2018-04-22T03:56:08.885Z,28.30
2018-04-22T03:57:09.096Z,27.50
2018-04-22T03:58:09.261Z,24.90
2018-04-22T03:59:09.440Z,26.30
2018-04-22T04:00:09.689Z,25.90
2018-04-22T04:01:09.760Z,25.20
2018-04-22T04:02:09.888Z,25.60
2018-04-22T04:03:10.003Z,28.20
2018-04-22T04:04:10.222Z,25.50
2018-04-22T04:05:10.413Z,24.10
2018-04-22T04:06:10.563Z,23.20
2018-04-22T04:07:10.759Z,22.40
2018-04-22T04:08:10.920Z,23.60
2018-04-22T04:09:11.072Z,24.80
2018-04-22T04:10:11.263Z,23.30
2018-04-22T04:11:11.376Z,22.10
2018-04-22T04:12:11.579Z,22.00
2018-04-22T04:13:11.740Z,22.60
2018-04-22T04:14:11.958Z,23.20
2018-04-22T04:15:12.014Z,22.90
2018-04-22T04:16:12.233Z,24.60
2018-04-22T04:17:12.354Z,21.30
2018-04-22T04:18:12.602Z,21.10
2018-04-22T04:19:12.662Z,23.60
2018-04-22T04:20:12.872Z,22.70
2018-04-22T04:21:13.067Z,23.10
2018-04-22T04:22:13.196Z,22.40
2018-04-22T04:23:13.400Z,21.30
2018-04-22T04:24:13.504Z,20.40
2018-04-22T04:25:13.719Z,22.10
2018-04-22T04:26:13.856Z,22.00
2018-04-22T04:27:13.957Z,21.40
2018-04-22T04:28:14.180Z,21.10
2018-04-22T04:29:14.335Z,22.20
2018-04-22T04:30:14.466Z,24.40
2018-04-22T04:31:14.635Z,23.50
2018-04-22T04:32:14.823Z,22.80
2018-04-22T04:33:14.966Z,22.70
2018-04-22T04:34:15.178Z,22.00
2018-04-22T04:35:15.265Z,22.80
2018-04-22T04:36:15.428Z,21.90
2018-04-22T04:37:15.678Z,21.10
2018-04-22T04:38:15.823Z,21.70
2018-04-22T04:39:15.940Z,21.90
2018-04-22T04:40:16.268Z,21.20
2018-04-22T04:43:11.056Z,22.30
2018-04-22T04:44:03.639Z,22.80
2018-04-22T04:45:03.951Z,22.70
2018-04-22T04:47:04.071Z,22.90
2018-04-22T04:48:02.485Z,22.20
2018-04-22T04:49:02.263Z,22.30
2018-04-22T04:50:02.611Z,20.90
2018-04-22T04:51:02.680Z,21.00
2018-04-22T04:52:02.843Z,22.30
2018-04-22T04:53:02.962Z,23.00
2018-04-22T04:54:03.094Z,25.30
2018-04-22T04:55:03.320Z,25.30
2018-04-22T04:56:03.571Z,24.30
2018-04-22T04:57:03.618Z,22.50
2018-04-22T04:58:03.802Z,22.60
2018-04-22T04:59:03.990Z,20.80
2018-04-22T05:00:04.160Z,20.60
2018-04-22T05:01:04.278Z,21.10
2018-04-22T05:02:04.872Z,20.50
2018-04-22T05:03:04.622Z,21.50
2018-04-22T05:04:04.969Z,20.30
2018-04-22T05:05:05.163Z,18.80
2018-04-22T05:06:05.325Z,19.60
2018-04-22T05:07:05.372Z,19.50
2018-04-22T05:08:05.527Z,19.30
2018-04-22T05:09:06.054Z,19.40
2018-04-22T05:10:06.039Z,20.10
2018-04-22T05:11:06.078Z,18.70
2018-04-22T05:12:06.356Z,19.50
2018-04-22T05:13:06.567Z,19.60
2018-04-22T05:14:06.573Z,20.40
2018-04-22T05:15:06.702Z,19.90
2018-04-22T05:16:06.983Z,19.50
2018-04-22T05:17:07.172Z,19.40
2018-04-22T05:18:07.299Z,22.10
2018-04-22T05:19:08.682Z,22.70
2018-04-22T05:20:09.068Z,24.30
2018-04-22T05:21:09.773Z,26.90
2018-04-22T05:22:08.405Z,26.30
2018-04-22T05:23:08.163Z,27.50
2018-04-22T05:24:08.397Z,29.40
2018-04-22T05:25:08.470Z,30.40
2018-04-22T05:26:08.601Z,29.70
2018-04-22T05:27:08.805Z,27.00
2018-04-22T05:28:09.015Z,27.40
2018-04-22T05:29:09.298Z,25.70
2018-04-22T05:30:09.269Z,22.60
2018-04-22T05:31:09.504Z,21.40
2018-04-22T05:32:09.612Z,21.00
2018-04-22T05:33:09.873Z,19.70
2018-04-22T05:34:09.994Z,21.10
2018-04-22T05:35:10.197Z,21.60
2018-04-22T05:36:12.590Z,20.60
2018-04-22T05:37:10.463Z,20.40
2018-04-22T05:38:10.660Z,20.90
2018-04-22T05:39:11.063Z,20.20
2018-04-22T05:41:58.607Z,21.40
2018-04-22T05:42:59.695Z,20.70
2018-04-22T05:43:57.735Z,22.50
2018-04-22T05:44:57.791Z,23.90
2018-04-22T05:45:57.741Z,23.50
2018-04-22T05:46:57.872Z,24.10
2018-04-22T05:47:58.004Z,25.20
2018-04-22T05:48:58.291Z,24.70
2018-04-22T05:49:58.933Z,25.10
2018-04-22T05:50:58.478Z,24.60
2018-04-22T05:51:58.676Z,23.80
2018-04-22T05:52:58.795Z,23.80
2018-04-22T05:53:59.035Z,23.50
2018-04-22T05:54:59.173Z,24.40
2018-04-22T05:55:59.474Z,24.00
2018-04-22T05:56:59.581Z,23.50
2018-04-22T05:57:59.744Z,23.10
2018-04-22T05:58:59.964Z,23.00
2018-04-22T06:00:00.154Z,22.70
2018-04-22T06:01:00.317Z,22.40
2018-04-22T06:02:00.470Z,22.40
2018-04-22T06:03:00.647Z,22.80
2018-04-22T06:04:00.809Z,23.90
2018-04-22T06:05:00.969Z,23.50
2018-04-22T06:06:01.147Z,22.10
2018-04-22T06:07:01.239Z,23.10
2018-04-22T06:08:01.468Z,23.30
2018-04-22T06:09:01.664Z,22.10
2018-04-22T06:10:01.826Z,22.50
2018-04-22T06:11:02.016Z,23.20
2018-04-22T06:12:02.125Z,24.40
2018-04-22T06:13:02.273Z,23.20
2018-04-22T06:14:02.482Z,25.00
2018-04-22T06:15:02.632Z,24.00
2018-04-22T06:16:02.776Z,24.00
2018-04-22T06:17:02.927Z,24.20
2018-04-22T06:18:03.089Z,24.90
2018-04-22T06:19:03.936Z,25.40
2018-04-22T06:20:03.432Z,24.30
2018-04-22T06:21:03.633Z,24.60
2018-04-22T06:22:03.751Z,23.90
2018-04-22T06:23:04.029Z,25.70
2018-04-22T06:24:04.093Z,25.80
2018-04-22T06:25:04.353Z,25.40
2018-04-22T06:26:04.480Z,25.80
2018-04-22T06:27:04.600Z,25.70
2018-04-22T06:28:04.719Z,25.10
2018-04-22T06:31:14.617Z,26.60
2018-04-22T06:34:03.974Z,26.60
2018-04-22T06:34:48.054Z,26.30
2018-04-22T06:35:44.303Z,26.50
2018-04-22T06:36:44.992Z,26.70
2018-04-22T06:37:43.824Z,26.40
2018-04-22T06:38:43.918Z,26.00
2018-04-22T06:39:44.121Z,25.80
2018-04-22T06:40:44.268Z,25.10
2018-04-22T06:41:44.388Z,24.70
2018-04-22T06:42:44.623Z,24.30
2018-04-22T06:43:44.748Z,26.60
2018-04-22T06:44:44.883Z,24.50
2018-04-22T06:45:45.108Z,25.50
2018-04-22T06:46:45.418Z,24.50
2018-04-22T06:47:45.415Z,23.40
2018-04-22T06:48:45.594Z,24.20
2018-04-22T06:49:46.031Z,23.10
2018-04-22T06:50:45.946Z,24.80
2018-04-22T06:51:46.105Z,26.50
2018-04-22T06:52:46.346Z,27.20
2018-04-22T06:53:46.454Z,28.30
2018-04-22T06:54:46.689Z,26.10
2018-04-22T06:55:46.750Z,27.90
2018-04-22T06:56:46.975Z,25.90
2018-04-22T06:57:47.138Z,43.70
2018-04-22T06:58:47.357Z,28.50
2018-04-22T06:59:47.433Z,27.40
2018-04-22T07:00:47.546Z,27.30
2018-04-22T07:01:47.823Z,27.70
2018-04-22T07:02:47.924Z,28.30
2018-04-22T07:03:48.072Z,29.50
2018-04-22T07:04:48.318Z,28.70
2018-04-22T07:05:48.463Z,28.10
2018-04-22T07:06:48.678Z,28.80
2018-04-22T07:07:48.805Z,29.10
2018-04-22T07:08:48.935Z,28.30
2018-04-22T07:09:49.152Z,29.10
2018-04-22T07:10:49.249Z,29.60
2018-04-22T07:11:49.552Z,29.80
2018-04-22T07:12:49.730Z,29.10
2018-04-22T07:13:50.049Z,27.90
2018-04-22T07:14:50.059Z,29.70
2018-04-22T07:15:50.330Z,30.60
2018-04-22T07:16:50.305Z,29.30
2018-04-22T07:17:50.601Z,30.40
2018-04-22T07:18:51.017Z,29.60
2018-04-22T07:19:50.754Z,29.90
2018-04-22T07:20:50.955Z,29.60
2018-04-22T07:21:51.125Z,28.00
2018-04-22T07:22:51.969Z,28.50
2018-04-22T07:32:22.389Z,28.50
2018-04-22T07:35:02.003Z,27.40
2018-04-22T07:35:55.916Z,28.60
2018-04-22T07:38:58.658Z,28.40
2018-04-22T07:39:31.741Z,29.40
2018-04-22T07:40:31.778Z,27.70
2018-04-22T07:41:31.786Z,28.20
2018-04-22T07:42:32.132Z,27.80
2018-04-22T07:43:37.278Z,28.40
2018-04-22T07:44:35.617Z,28.70
2018-04-22T07:45:37.440Z,27.10
2018-04-22T07:46:35.117Z,26.60
2018-04-22T07:47:33.801Z,27.30
2018-04-22T07:48:33.251Z,27.80
2018-04-22T07:49:32.075Z,27.10
2018-04-22T07:50:31.275Z,27.10
2018-04-22T07:55:17.138Z,28.80
2018-04-22T08:00:33.656Z,29.80
2018-04-22T08:01:34.755Z,29.50
2018-04-22T08:02:34.129Z,29.80
2018-04-22T08:03:33.239Z,30.00
2018-04-22T08:04:39.959Z,28.40
2018-04-22T08:05:35.445Z,28.90
2018-04-22T08:06:33.252Z,28.80
2018-04-22T08:07:38.286Z,28.40
2018-04-22T08:08:35.854Z,28.00
2018-04-22T08:15:41.922Z,27.20
2018-04-22T08:23:26.257Z,25.90
2018-04-22T08:24:38.944Z,25.70
2018-04-22T08:25:30.484Z,25.60
2018-04-22T08:26:23.551Z,25.40
2018-04-22T08:27:30.793Z,24.90
2018-04-22T08:28:23.619Z,26.40
2018-04-22T08:29:36.425Z,24.70
2018-04-22T08:30:36.838Z,25.10
2018-04-22T08:38:19.678Z,24.50
2018-04-22T08:39:10.305Z,22.90
2018-04-22T08:40:10.414Z,24.00
2018-04-22T08:43:14.881Z,23.70
2018-04-22T08:44:13.355Z,23.20
2018-04-22T08:47:26.119Z,23.30
2018-04-22T08:48:28.509Z,24.80
2018-04-22T08:49:27.285Z,23.10
2018-04-22T08:50:27.010Z,23.50
2018-04-22T08:51:26.853Z,24.80
2018-04-22T08:52:28.206Z,25.10
2018-04-22T08:53:34.194Z,23.80
2018-04-22T08:57:52.461Z,25.20
2018-04-22T08:58:51.187Z,24.30
2018-04-22T08:59:44.503Z,23.50
2018-04-22T09:04:23.148Z,23.00
2018-04-22T09:05:25.000Z,21.70
2018-04-22T09:28:52.878Z,16.40
2018-04-22T09:30:00.066Z,16.00
2018-04-22T09:38:57.539Z,16.10
2018-04-22T09:39:49.042Z,15.50
2018-04-22T09:40:47.680Z,15.00
2018-04-22T09:41:47.291Z,14.50
2018-04-22T09:42:47.657Z,14.50
2018-04-22T09:43:47.618Z,13.80
2018-04-22T09:44:48.045Z,16.90
2018-04-22T09:45:48.121Z,15.10
2018-04-22T09:46:48.152Z,15.90
2018-04-22T09:47:48.188Z,14.20
2018-04-22T09:48:48.593Z,14.50
2018-04-22T09:49:49.117Z,13.30
2018-04-22T09:50:48.852Z,14.80
2018-04-22T09:51:48.970Z,14.90
2018-04-22T09:52:49.125Z,13.90
2018-04-22T09:53:49.578Z,14.40
2018-04-22T09:54:49.496Z,14.00
2018-04-22T09:55:49.691Z,13.90
2018-04-22T09:56:49.970Z,14.40
2018-04-22T09:57:50.556Z,12.50
2018-04-22T09:58:52.208Z,13.10
2018-04-22T09:59:50.300Z,14.60
2018-04-22T10:00:50.525Z,13.80
2018-04-22T10:01:50.751Z,14.80
2018-04-22T10:02:50.821Z,12.90
2018-04-22T10:03:50.988Z,13.50
2018-04-22T10:04:51.217Z,14.30
2018-04-22T10:05:51.520Z,13.50
2018-04-22T10:06:51.521Z,12.80
2018-04-22T10:07:51.832Z,11.90
2018-04-22T10:08:51.923Z,12.00
2018-04-22T10:09:52.809Z,13.40
2018-04-22T10:10:52.350Z,12.40
2018-04-22T10:11:52.680Z,11.30
2018-04-22T10:12:52.803Z,11.20
2018-04-22T10:13:53.619Z,10.60
2018-04-22T10:14:53.563Z,12.00
2018-04-22T10:15:53.255Z,14.20
2018-04-22T10:16:53.435Z,14.00
2018-04-22T10:17:53.659Z,11.50
2018-04-22T10:18:53.799Z,11.00
2018-04-22T10:19:53.958Z,12.60
2018-04-22T10:20:54.157Z,11.90
2018-04-22T10:21:54.399Z,12.30
2018-04-22T10:22:54.531Z,13.40
2018-04-22T10:23:54.785Z,12.10
2018-04-22T10:24:54.884Z,13.20
2018-04-22T10:25:55.033Z,9.80
2018-04-22T10:26:55.337Z,9.50
2018-04-22T10:27:57.130Z,10.40
2018-04-22T10:28:55.672Z,9.60
2018-04-22T10:29:55.841Z,10.70
2018-04-22T10:30:56.017Z,12.80
2018-04-22T10:31:56.229Z,10.20
2018-04-22T10:32:56.440Z,10.80
2018-04-22T10:33:56.545Z,10.00
2018-04-22T10:36:29.985Z,9.10
2018-04-22T10:37:31.479Z,9.10
2018-04-22T10:38:30.326Z,8.90
2018-04-22T10:39:30.383Z,9.20
2018-04-22T10:40:30.675Z,10.80
2018-04-22T10:41:31.735Z,12.00
2018-04-22T10:42:44.076Z,8.50
2018-04-22T10:43:34.156Z,8.40
2018-04-22T10:44:33.709Z,11.10
2018-04-22T10:45:34.859Z,10.10
2018-04-22T10:46:43.281Z,9.80
2018-04-22T10:47:34.605Z,9.00
2018-04-22T10:48:33.869Z,9.70
2018-04-22T10:51:09.028Z,11.30
2018-04-22T10:52:09.154Z,10.40
2018-04-22T10:53:08.837Z,9.80
2018-04-22T10:54:07.699Z,9.80
2018-04-22T10:55:07.543Z,8.30
2018-04-22T10:56:27.174Z,8.20
2018-04-22T10:57:12.672Z,8.30
2018-04-22T10:58:11.944Z,8.90
2018-04-22T10:59:08.930Z,9.00
2018-04-22T11:01:19.502Z,8.90
2018-04-22T11:02:10.977Z,7.80
2018-04-22T11:03:11.810Z,8.20
2018-04-22T11:04:11.822Z,9.30
2018-04-22T11:05:10.608Z,7.10
2018-04-22T11:07:27.626Z,7.30
2018-04-22T11:08:12.138Z,7.40
2018-04-22T11:09:12.635Z,9.10
2018-04-22T11:10:10.297Z,8.40
2018-04-22T11:11:10.498Z,9.20
2018-04-22T11:12:10.652Z,8.10
2018-04-22T11:13:11.187Z,8.30
2018-04-22T11:25:35.879Z,9.00
2018-04-22T11:26:33.328Z,7.40
2018-04-22T11:40:28.083Z,6.10
2018-04-22T11:41:16.381Z,7.00
2018-04-22T11:42:19.722Z,6.50
2018-04-22T11:52:44.829Z,4.90
2018-04-22T12:04:48.957Z,6.70
2018-04-22T12:11:50.974Z,8.20
2018-04-22T12:16:29.633Z,6.00
2018-04-22T12:17:32.399Z,8.50
2018-04-22T12:18:28.433Z,6.20
2018-04-22T12:19:41.970Z,7.10
2018-04-22T12:20:32.390Z,6.00
2018-04-22T12:21:31.447Z,6.60
2018-04-22T12:22:28.994Z,8.90
2018-04-22T12:25:18.089Z,6.10
2018-04-22T12:27:31.163Z,6.50
2018-04-22T12:42:25.070Z,8.10
2018-04-22T12:50:14.612Z,7.80
2018-04-22T13:03:56.996Z,5.50
2018-04-22T13:04:52.752Z,6.00
2018-04-22T13:05:45.364Z,6.50
2018-04-22T13:06:46.779Z,5.80
2018-04-22T13:07:44.919Z,6.30
2018-04-22T13:08:43.080Z,6.10
2018-04-22T13:31:39.037Z,7.20
2018-04-22T13:38:00.645Z,5.90
2018-04-22T13:40:03.160Z,7.20
2018-04-22T13:40:59.951Z,5.80
2018-04-22T13:42:00.099Z,5.70
2018-04-22T13:43:00.266Z,7.70
2018-04-22T13:44:00.345Z,6.50
2018-04-22T13:45:00.565Z,7.70
2018-04-22T13:46:00.707Z,9.70
2018-04-22T13:47:01.089Z,6.20
2018-04-22T13:48:01.119Z,5.10
2018-04-22T13:49:01.777Z,6.80
2018-04-22T13:50:01.589Z,6.40
2018-04-22T13:51:01.804Z,7.20
2018-04-22T13:52:01.973Z,7.80
2018-04-22T13:53:07.670Z,8.50
2018-04-22T13:54:02.366Z,5.80
2018-04-22T13:55:02.952Z,6.70
2018-04-22T13:56:02.738Z,9.30
2018-04-22T13:57:05.532Z,6.60
2018-04-22T13:58:03.762Z,6.60
2018-04-22T13:59:14.706Z,5.60
2018-04-22T14:08:59.385Z,7.40
2018-04-22T14:10:23.765Z,6.40
2018-04-22T14:11:04.762Z,6.10
2018-04-22T15:06:49.386Z,6.60
2018-04-22T15:16:10.880Z,7.40
2018-04-22T15:17:12.936Z,8.90
2018-04-22T15:18:08.614Z,5.00
2018-04-22T15:19:07.878Z,8.10
2018-04-22T15:20:08.371Z,8.30
2018-04-22T15:22:52.462Z,7.50
2018-04-22T15:49:04.239Z,10.00
2018-04-22T15:50:06.848Z,8.60
2018-04-22T15:51:07.243Z,10.60
2018-04-22T15:52:12.215Z,8.80
2018-04-22T15:56:44.717Z,10.50
2018-04-22T16:08:53.776Z,7.10
2018-04-22T16:11:41.621Z,7.80
2018-04-22T16:41:01.449Z,7.00
2018-04-22T16:44:14.454Z,8.60
2018-04-22T16:48:14.416Z,7.60
2018-04-22T17:56:33.611Z,8.40
2018-04-22T18:24:18.604Z,9.40
2018-04-22T18:27:25.365Z,5.50
2018-04-22T18:28:24.760Z,6.90
2018-04-22T18:29:23.907Z,8.20
2018-04-22T18:30:23.823Z,7.90
2018-04-22T19:05:36.372Z,7.90
2018-04-22T19:06:46.828Z,11.80
2018-04-22T19:07:37.218Z,21.90
2018-04-22T19:08:37.256Z,30.40
2018-04-22T19:09:37.899Z,31.70
2018-04-22T19:10:37.246Z,27.40
2018-04-22T19:11:37.540Z,21.10
2018-04-22T19:12:35.631Z,17.00
2018-04-22T19:13:35.594Z,14.80
2018-04-22T19:14:35.922Z,11.60
2018-04-22T19:15:35.992Z,14.10
2018-04-22T19:16:36.118Z,17.70
2018-04-22T19:17:36.311Z,12.90
2018-04-22T19:18:36.495Z,10.80
2018-04-22T19:19:36.594Z,13.50
2018-04-22T19:20:36.799Z,9.50
2018-04-22T19:21:36.933Z,10.10
2018-04-22T19:22:37.123Z,11.00
2018-04-22T19:23:37.239Z,11.70
2018-04-22T19:24:37.413Z,12.50
2018-04-22T19:25:37.570Z,11.00
2018-04-22T19:26:37.722Z,13.20
2018-04-22T19:27:37.910Z,12.30
2018-04-22T19:28:38.138Z,12.20
2018-04-22T19:29:38.254Z,11.30
2018-04-22T19:30:38.577Z,11.20
2018-04-22T19:31:38.607Z,11.10
2018-04-22T19:32:38.808Z,12.90
2018-04-22T19:33:38.928Z,10.30
2018-04-22T19:34:39.081Z,10.30
2018-04-22T19:35:39.263Z,11.90
2018-04-22T19:36:39.442Z,13.10
2018-04-22T19:37:39.730Z,10.20
2018-04-22T19:38:39.843Z,11.30
2018-04-22T19:39:39.989Z,10.90
2018-04-22T19:40:40.145Z,11.80
2018-04-22T19:41:40.396Z,10.40
2018-04-22T19:42:40.516Z,12.30
2018-04-22T19:43:40.609Z,10.60
2018-04-22T19:44:40.830Z,13.50
2018-04-22T19:45:41.009Z,9.40
2018-04-22T19:46:41.152Z,9.70
2018-04-22T19:47:41.283Z,8.70
2018-04-22T19:48:41.527Z,10.10
2018-04-22T19:49:41.646Z,7.80
2018-04-22T19:50:41.814Z,8.90
2018-04-22T19:51:41.977Z,8.50
2018-04-22T19:52:42.207Z,9.40
2018-04-22T19:53:42.404Z,10.30
2018-04-22T19:54:42.467Z,7.50
2018-04-22T19:55:42.624Z,7.20
2018-04-22T19:56:42.865Z,7.60
2018-04-22T19:57:42.989Z,6.50
2018-04-22T19:58:43.208Z,9.30
2018-04-22T19:59:43.329Z,6.60
2018-04-22T20:00:43.428Z,9.80
2018-04-22T20:01:43.701Z,10.00
2018-04-22T20:02:43.851Z,7.80
2018-04-22T20:03:43.953Z,12.40
2018-04-22T20:04:44.170Z,8.80
2018-04-22T20:05:44.338Z,7.90
2018-04-22T20:06:44.566Z,8.70
2018-04-22T20:07:44.681Z,10.80
2018-04-22T20:08:44.819Z,8.60
2018-04-22T20:09:44.953Z,8.80
2018-04-22T20:10:45.176Z,9.90
2018-04-22T20:11:45.406Z,8.20
2018-04-22T20:12:45.509Z,8.90
2018-04-22T20:13:45.640Z,10.20
2018-04-22T20:14:45.813Z,11.20
2018-04-22T20:15:46.041Z,10.30
2018-04-22T20:16:46.193Z,10.20
2018-04-22T20:17:46.337Z,10.70
2018-04-22T20:18:46.544Z,9.60
2018-04-22T20:19:46.668Z,12.20
2018-04-22T20:20:46.852Z,10.40
2018-04-22T20:21:47.046Z,8.30
2018-04-22T20:22:47.264Z,9.30
2018-04-22T20:23:47.403Z,9.50
2018-04-22T20:24:47.572Z,12.10
2018-04-22T20:25:47.675Z,9.90
2018-04-22T20:26:47.802Z,9.80
2018-04-22T20:27:47.995Z,10.50
2018-04-22T20:28:48.215Z,11.90
2018-04-22T20:29:48.460Z,11.10
2018-04-22T20:30:48.701Z,9.10
2018-04-22T20:31:48.931Z,9.40
2018-04-22T20:32:49.047Z,8.80
2018-04-22T20:33:49.207Z,10.90
2018-04-22T20:34:49.424Z,8.00
2018-04-22T20:35:49.661Z,11.60
2018-04-22T20:36:49.850Z,8.90
2018-04-22T20:37:50.059Z,8.70
2018-04-22T20:38:50.342Z,9.40
2018-04-22T20:39:50.348Z,9.10
2018-04-22T20:40:51.766Z,11.10
2018-04-22T20:41:50.754Z,7.40
2018-04-22T20:42:50.930Z,7.10
2018-04-22T20:43:51.143Z,6.60
2018-04-22T20:44:51.356Z,8.10
2018-04-22T20:45:51.501Z,11.00
2018-04-22T20:46:51.673Z,8.00
2018-04-22T20:47:52.122Z,9.80
2018-04-22T20:48:52.170Z,8.00
2018-04-22T20:49:53.124Z,10.30
2018-04-22T20:50:52.565Z,9.60
2018-04-22T20:51:52.574Z,11.00
2018-04-22T20:52:52.678Z,10.20
2018-04-22T20:53:53.194Z,10.40
2018-04-22T20:54:53.111Z,10.70
2018-04-22T20:55:53.408Z,7.70
2018-04-22T20:56:53.352Z,8.70
2018-04-22T20:57:53.623Z,10.70
2018-04-22T20:58:53.730Z,10.50
2018-04-22T20:59:53.920Z,12.00
2018-04-22T21:00:54.107Z,9.00
2018-04-22T21:01:54.628Z,8.40
2018-04-22T21:02:54.670Z,8.40
2018-04-22T21:03:54.698Z,11.20
2018-04-22T21:04:54.792Z,11.80
2018-04-22T21:05:54.917Z,9.70
2018-04-22T21:06:55.174Z,10.30
2018-04-22T21:07:55.278Z,13.10
2018-04-22T21:08:55.451Z,10.20
2018-04-22T21:09:55.746Z,13.20
2018-04-22T21:10:56.379Z,9.70
2018-04-22T21:11:56.248Z,9.10
2018-04-22T21:12:56.274Z,9.90
2018-04-22T21:13:57.565Z,10.00
2018-04-22T21:20:02.939Z,9.50
2018-04-22T21:21:04.814Z,9.80
2018-04-22T21:29:32.321Z,9.90
2018-04-22T21:43:23.987Z,9.50
